Observation Tools

Blackgum Photo courtesy of Steve Baskauf, Vanderbilt University, bioimages.vanderbilt.edu.

Blackgum (Nyssa sylvatica)


Plant Family: Dogwood (Cornaceae)
Project BudBurst Plant Group: Deciduous Trees and Shrubs

Identification Hints: Blackgum (also known as black tupelo) is a deciduous tree with oval to obovate shaped leaves that have wavy margins and are shiny on top. The flowers occur in small, greenish-white clusters.

Did you Know? Blackgum is considered a good honey tree. In the wild, it is often found growing with flowering dogwood, yaupon, and black cherry trees. Blackgum fruits are poplular with birds and bears and the twigsare often browed by deer.


Live Map for Blackgum

Other years available for viewing:

Below you can view all observations that have been reported in for Blackgum (If the map below is empty then there have not been any observations reported.)

Use the navigation buttons on the left to zoom in/out and pan around. Click on each place marker to get detail information about that observation.

Leaf/Needles/Stalk = Leaf/Needles/Stalk Flower = Flower Pollen = Pollen Fruiting = Fruiting Color = Color

--Back to Top--

close help window button

The table below displays all the data that has been submitted to Project BudBurst. By default, the data is sorted by the date on which the phenophase occurred. Clicking the up and down arrows next to each column name allows you to sort on any value. If there have been more than 10 observations submitted, you can choose how many to display at a time using the "Show __ entries" control. You can also page through the data using the previous and next buttons at the bottom right of the table.

The Search box allows you to search all of the data. Searching by date, species, phenophase, etc. is easy—just start typing and the table will immediately change to contain only observations that contain your search phrase. Do you want to see only 2012 observations? Just type "2012" in the search box. Only want to see maples? Enter "Acer." You can combine searches, too! Searching for "acer 2012" will narrow your results to only the maples that were observed in 2012 (assuming that any observations exist, of course).

Once you have your results in the order desired, you can use any of the buttons above the search box to copy the results to the clipboard; save them as a text, or spreadsheet; or even print them from your browser!

Observational data for Blackgum:

help button
Date Contributor Common Name Species Phenophase Latitude Longitude Obs#
Tue Oct 11 00:00:00 GMT 2011 palaback Blackgum Nyssa sylvatica Leaves Changing Color (Late) 43.351200000000000 -72.040300000000000 13621
Fri Apr 05 00:00:00 GMT 2013 AimeeYousey Blackgum Nyssa sylvatica Fruit (Late) 35.226200000000000 -97.435000000000000 18717
Thu Oct 24 00:00:00 GMT 2013 dafsharjavan Blackgum Nyssa sylvatica 50% Leaf Fall 38.988100000000000 -76.941300000000000 22740
Tue Nov 05 00:00:00 GMT 2013 Spainhour15z Blackgum Nyssa sylvatica Leaves Dropping (Middle) 35.279900000000000 -81.076700000000000 22966
Mon Nov 04 00:00:00 GMT 2013 chogarth Blackgum Nyssa sylvatica 50% Color 39.174100000000000 -86.527600000000000 23124
Thu Nov 07 00:00:00 GMT 2013 chogarth Blackgum Nyssa sylvatica 50% Leaf Fall 39.174100000000000 -86.527600000000000 23125
Thu May 08 00:00:00 GMT 2014 shaakira Blackgum Nyssa sylvatica Leaves Unfolding (None) 40.000000000000000 -100.000000000000000 31807
Thu May 08 00:00:00 GMT 2014 shaakira Blackgum Nyssa sylvatica Leaves Changing Color (None) 40.000000000000000 -100.000000000000000 31808
Thu May 08 00:00:00 GMT 2014 shaakira Blackgum Nyssa sylvatica Leaves Dropping (None) 40.000000000000000 -100.000000000000000 31809
Thu May 08 00:00:00 GMT 2014 shaakira Blackgum Nyssa sylvatica Flowers (None) 40.000000000000000 -100.000000000000000 31810
Thu May 08 00:00:00 GMT 2014 shaakira Blackgum Nyssa sylvatica Fruit (None) 40.000000000000000 -100.000000000000000 31811
Fri May 02 00:00:00 GMT 2014 shaakira Blackgum Nyssa sylvatica First Leaf 40.721410000000000 -73.793200000000000 31826
Thu May 08 00:00:00 GMT 2014 shaakira Blackgum Nyssa sylvatica Leaves Unfolding (None) 40.721410000000000 -73.793200000000000 31797
Thu May 08 00:00:00 GMT 2014 shaakira Blackgum Nyssa sylvatica Leaves Changing Color (None) 40.721410000000000 -73.793200000000000 31798
Thu May 08 00:00:00 GMT 2014 shaakira Blackgum Nyssa sylvatica Leaves Dropping (None) 40.721410000000000 -73.793200000000000 31799
Thu May 08 00:00:00 GMT 2014 shaakira Blackgum Nyssa sylvatica Flowers (None) 40.721410000000000 -73.793200000000000 31800
Thu May 08 00:00:00 GMT 2014 shaakira Blackgum Nyssa sylvatica Fruit (None) 40.721410000000000 -73.793200000000000 31801
Thu May 01 00:00:00 GMT 2014 laurob_St._John's_University__reporter5 Blackgum Nyssa sylvatica Bud Burst 40.721400000000000 -73.793200000000000 31824
Fri May 02 00:00:00 GMT 2014 laurob_St._John's_University__reporter5 Blackgum Nyssa sylvatica First Leaf 40.721400000000000 -73.793200000000000 31825
Thu May 01 00:00:00 GMT 2014 shaakira Blackgum Nyssa sylvatica Bud Burst 40.721410000000000 -73.793200000000000 31796
Sun Sep 14 00:00:00 GMT 2014 glendacolon92 Blackgum Nyssa sylvatica All Leaves Unfolded 42.107570000000000 -72.585100000000000 35475
Fri Sep 19 00:00:00 GMT 2014 glendacolon92 Blackgum Nyssa sylvatica 50% Color 42.107570000000000 -72.585100000000000 35476
Fri Sep 19 00:00:00 GMT 2014 glendacolon92 Blackgum Nyssa sylvatica 50% Leaf Fall 42.107570000000000 -72.585100000000000 35477
Sun Sep 14 00:00:00 GMT 2014 glendacolon92 Blackgum Nyssa sylvatica Leaves Unfolding (None) 42.106691000000000 -72.583730000000000 35572
Sun Sep 14 00:00:00 GMT 2014 glendacolon92 Blackgum Nyssa sylvatica Leaves Changing Color (Early) 42.106691000000000 -72.583730000000000 35573
Sun Sep 14 00:00:00 GMT 2014 glendacolon92 Blackgum Nyssa sylvatica Leaves Dropping (Early) 42.106691000000000 -72.583730000000000 35574
Sun Sep 14 00:00:00 GMT 2014 glendacolon92 Blackgum Nyssa sylvatica Flowers (None) 42.106691000000000 -72.583730000000000 35575
Sun Sep 14 00:00:00 GMT 2014 glendacolon92 Blackgum Nyssa sylvatica Fruit (None) 42.106691000000000 -72.583730000000000 35576
Wed Sep 17 00:00:00 GMT 2014 glendacolon92 Blackgum Nyssa sylvatica Leaves Unfolding (None) 42.106691000000000 -72.583730000000000 35577
Wed Sep 17 00:00:00 GMT 2014 glendacolon92 Blackgum Nyssa sylvatica Leaves Changing Color (Early) 42.106691000000000 -72.583730000000000 35578
Wed Sep 17 00:00:00 GMT 2014 glendacolon92 Blackgum Nyssa sylvatica Leaves Dropping (Early) 42.106691000000000 -72.583730000000000 35579
Wed Sep 17 00:00:00 GMT 2014 glendacolon92 Blackgum Nyssa sylvatica Flowers (None) 42.106691000000000 -72.583730000000000 35580
Wed Sep 17 00:00:00 GMT 2014 glendacolon92 Blackgum Nyssa sylvatica Fruit (None) 42.106691000000000 -72.583730000000000 35581
Fri Sep 26 00:00:00 GMT 2014 BigMac51 Blackgum Nyssa sylvatica Leaves Unfolding (Late) 37.033140000000000 -85.076170000000000 35702
Fri Sep 26 00:00:00 GMT 2014 BigMac51 Blackgum Nyssa sylvatica Leaves Changing Color (Early) 37.033140000000000 -85.076170000000000 35703
Fri Sep 26 00:00:00 GMT 2014 BigMac51 Blackgum Nyssa sylvatica Leaves Dropping (None) 37.033140000000000 -85.076170000000000 35704
Fri Sep 26 00:00:00 GMT 2014 BigMac51 Blackgum Nyssa sylvatica Flowers (None) 37.033140000000000 -85.076170000000000 35705
Fri Sep 26 00:00:00 GMT 2014 BigMac51 Blackgum Nyssa sylvatica Fruit (None) 37.033140000000000 -85.076170000000000 35706
Sun Sep 28 00:00:00 GMT 2014 glendacolon92 Blackgum Nyssa sylvatica Leaves Unfolding (None) 40.000000000000000 -100.000000000000000 35779
Sun Sep 28 00:00:00 GMT 2014 glendacolon92 Blackgum Nyssa sylvatica Leaves Changing Color (Middle) 40.000000000000000 -100.000000000000000 35780
Sun Sep 28 00:00:00 GMT 2014 glendacolon92 Blackgum Nyssa sylvatica Leaves Dropping (Early) 40.000000000000000 -100.000000000000000 35781
Sun Sep 28 00:00:00 GMT 2014 glendacolon92 Blackgum Nyssa sylvatica Flowers (None) 40.000000000000000 -100.000000000000000 35782
Sun Sep 28 00:00:00 GMT 2014 glendacolon92 Blackgum Nyssa sylvatica Fruit (None) 40.000000000000000 -100.000000000000000 35783
Fri Oct 03 00:00:00 GMT 2014 glendacolon92 Blackgum Nyssa sylvatica Leaves Unfolding (None) 40.000000000000000 -100.000000000000000 35963
Fri Oct 03 00:00:00 GMT 2014 glendacolon92 Blackgum Nyssa sylvatica Leaves Changing Color (Middle) 40.000000000000000 -100.000000000000000 35964
Fri Oct 03 00:00:00 GMT 2014 glendacolon92 Blackgum Nyssa sylvatica Leaves Dropping (Middle) 40.000000000000000 -100.000000000000000 35965
Fri Oct 03 00:00:00 GMT 2014 glendacolon92 Blackgum Nyssa sylvatica Flowers (None) 40.000000000000000 -100.000000000000000 35966
Fri Oct 03 00:00:00 GMT 2014 glendacolon92 Blackgum Nyssa sylvatica Fruit (None) 40.000000000000000 -100.000000000000000 35967
Fri Oct 03 00:00:00 GMT 2014 BigMac51 Blackgum Nyssa sylvatica Leaves Unfolding (Early) 37.033140000000000 -85.076170000000000 35978
Fri Oct 03 00:00:00 GMT 2014 BigMac51 Blackgum Nyssa sylvatica Leaves Changing Color (Early) 37.033140000000000 -85.076170000000000 35979
Fri Oct 03 00:00:00 GMT 2014 BigMac51 Blackgum Nyssa sylvatica Leaves Dropping (Early) 37.033140000000000 -85.076170000000000 35980
Fri Oct 03 00:00:00 GMT 2014 BigMac51 Blackgum Nyssa sylvatica Flowers (Early) 37.033140000000000 -85.076170000000000 35981
Fri Oct 03 00:00:00 GMT 2014 BigMac51 Blackgum Nyssa sylvatica Fruit (Middle) 37.033140000000000 -85.076170000000000 35982
Mon Oct 06 00:00:00 GMT 2014 jparker05 Blackgum Nyssa sylvatica Leaves Unfolding (None) 37.531190000000000 -84.661890000000000 37318
Mon Oct 06 00:00:00 GMT 2014 jparker05 Blackgum Nyssa sylvatica Leaves Changing Color (Middle) 37.531190000000000 -84.661890000000000 37319
Mon Oct 06 00:00:00 GMT 2014 jparker05 Blackgum Nyssa sylvatica Leaves Dropping (Early) 37.531190000000000 -84.661890000000000 37320
Mon Oct 06 00:00:00 GMT 2014 jparker05 Blackgum Nyssa sylvatica Flowers (None) 37.531190000000000 -84.661890000000000 37321
Mon Oct 06 00:00:00 GMT 2014 jparker05 Blackgum Nyssa sylvatica Fruit (None) 37.531190000000000 -84.661890000000000 37322
Mon Sep 29 00:00:00 GMT 2014 jparker05 Blackgum Nyssa sylvatica Leaves Unfolding (None) 37.531190000000000 -84.661890000000000 37313
Mon Sep 29 00:00:00 GMT 2014 jparker05 Blackgum Nyssa sylvatica Leaves Changing Color (Early) 37.531190000000000 -84.661890000000000 37314
Mon Sep 29 00:00:00 GMT 2014 jparker05 Blackgum Nyssa sylvatica Leaves Dropping (Early) 37.531190000000000 -84.661890000000000 37315
Mon Sep 29 00:00:00 GMT 2014 jparker05 Blackgum Nyssa sylvatica Flowers (None) 37.531190000000000 -84.661890000000000 37316
Mon Sep 29 00:00:00 GMT 2014 jparker05 Blackgum Nyssa sylvatica Fruit (None) 37.531190000000000 -84.661890000000000 37317
Mon Oct 13 00:00:00 GMT 2014 jparker05 Blackgum Nyssa sylvatica Leaves Unfolding (None) 37.531190000000000 -84.661890000000000 37323
Mon Oct 13 00:00:00 GMT 2014 jparker05 Blackgum Nyssa sylvatica Leaves Changing Color (Late) 37.531190000000000 -84.661890000000000 37324
Mon Oct 13 00:00:00 GMT 2014 jparker05 Blackgum Nyssa sylvatica Leaves Dropping (Middle) 37.531190000000000 -84.661890000000000 37325
Mon Oct 13 00:00:00 GMT 2014 jparker05 Blackgum Nyssa sylvatica Flowers (None) 37.531190000000000 -84.661890000000000 37326
Mon Oct 13 00:00:00 GMT 2014 jparker05 Blackgum Nyssa sylvatica Fruit (None) 37.531190000000000 -84.661890000000000 37327
Sun Oct 05 00:00:00 GMT 2014 bayfawn Blackgum Nyssa sylvatica 50% Color 39.448260000000000 -76.267280000000000 39064
Mon Apr 25 00:00:00 GMT 2016 OtterPoint_Otter_Point_Creek_reporter9 Blackgum Nyssa sylvatica All Leaves Unfolded 39.449290000000000 -76.277282000000000 65664
Sat Apr 30 00:00:00 GMT 2016 OtterPoint_Otter_Point_Creek_reporter8 Blackgum Nyssa sylvatica All Leaves Unfolded 39.449290000000000 -76.277282000000000 66041
Sat Apr 30 00:00:00 GMT 2016 OtterPoint_Otter_Point_Creek_reporter8 Blackgum Nyssa sylvatica First Flower 39.449290000000000 -76.277282000000000 66042
Sat May 07 00:00:00 GMT 2016 OtterPoint_Otter_Point_Creek_reporter7 Blackgum Nyssa sylvatica All Leaves Unfolded 39.449290000000000 -76.277282000000000 66485
Fri May 20 00:00:00 GMT 2016 OtterPoint_Otter_Point_Creek_reporter9 Blackgum Nyssa sylvatica First Flower 39.449290000000000 -76.277282000000000 67652
Fri May 20 00:00:00 GMT 2016 Riccardino Blackgum Nyssa sylvatica All Leaves Unfolded 41.943350000000000 -70.683050000000000 68041
Thu Jun 09 00:00:00 GMT 2016 OtterPoint_Otter_Point_Creek_reporter7 Blackgum Nyssa sylvatica Bud Burst 39.449290000000000 -76.277282000000000 68313
Sun Jul 10 00:00:00 GMT 2016 OtterPoint_Otter_Point_Creek_reporter10 Blackgum Nyssa sylvatica Full Fruiting 39.449290000000000 -76.277282000000000 68757
Wed Jul 13 00:00:00 GMT 2016 MBGYouthandFamily Blackgum Nyssa sylvatica Leaves Unfolding (Late) 38.613546400000000 -90.258356400000000 68861
Wed Jul 13 00:00:00 GMT 2016 MBGYouthandFamily Blackgum Nyssa sylvatica Leaves Changing Color (Early) 38.613546400000000 -90.258356400000000 68862
Wed Jul 13 00:00:00 GMT 2016 MBGYouthandFamily Blackgum Nyssa sylvatica Leaves Dropping (None) 38.613546400000000 -90.258356400000000 68863
Wed Jul 13 00:00:00 GMT 2016 MBGYouthandFamily Blackgum Nyssa sylvatica Flowers (None) 38.613546400000000 -90.258356400000000 68864
Wed Jul 13 00:00:00 GMT 2016 MBGYouthandFamily Blackgum Nyssa sylvatica Fruit (None) 38.613546400000000 -90.258356400000000 68865
Tue Aug 09 00:00:00 GMT 2016 MBGYouthandFamily Blackgum Nyssa sylvatica Leaves Unfolding (Late) 38.613546400000000 -90.258356400000000 69362
Tue Aug 09 00:00:00 GMT 2016 MBGYouthandFamily Blackgum Nyssa sylvatica Leaves Changing Color (Early) 38.613546400000000 -90.258356400000000 69363
Tue Aug 09 00:00:00 GMT 2016 MBGYouthandFamily Blackgum Nyssa sylvatica Leaves Dropping (Early) 38.613546400000000 -90.258356400000000 69364
Tue Aug 09 00:00:00 GMT 2016 MBGYouthandFamily Blackgum Nyssa sylvatica Flowers (None) 38.613546400000000 -90.258356400000000 69365
Tue Aug 09 00:00:00 GMT 2016 MBGYouthandFamily Blackgum Nyssa sylvatica Fruit (None) 38.613546400000000 -90.258356400000000 69366
Wed Aug 17 00:00:00 GMT 2016 MBGYouthandFamily Blackgum Nyssa sylvatica Leaves Unfolding (None) 38.613546000000000 -90.258356000000000 69493
Wed Aug 17 00:00:00 GMT 2016 MBGYouthandFamily Blackgum Nyssa sylvatica Leaves Changing Color (Early) 38.613546000000000 -90.258356000000000 69494
Wed Aug 17 00:00:00 GMT 2016 MBGYouthandFamily Blackgum Nyssa sylvatica Leaves Dropping (Early) 38.613546000000000 -90.258356000000000 69495
Wed Aug 17 00:00:00 GMT 2016 MBGYouthandFamily Blackgum Nyssa sylvatica Flowers (None) 38.613546000000000 -90.258356000000000 69496
Wed Aug 17 00:00:00 GMT 2016 MBGYouthandFamily Blackgum Nyssa sylvatica Fruit (None) 38.613546000000000 -90.258356000000000 69497
Mon Aug 29 00:00:00 GMT 2016 MBGYouthandFamily Blackgum Nyssa sylvatica Leaves Unfolding (Late) 38.613546400000000 -90.258356400000000 69575
Mon Aug 29 00:00:00 GMT 2016 MBGYouthandFamily Blackgum Nyssa sylvatica Leaves Changing Color (Early) 38.613546400000000 -90.258356400000000 69576
Mon Aug 29 00:00:00 GMT 2016 MBGYouthandFamily Blackgum Nyssa sylvatica Leaves Dropping (Early) 38.613546400000000 -90.258356400000000 69577
Mon Aug 29 00:00:00 GMT 2016 MBGYouthandFamily Blackgum Nyssa sylvatica Flowers (None) 38.613546400000000 -90.258356400000000 69578
Mon Aug 29 00:00:00 GMT 2016 MBGYouthandFamily Blackgum Nyssa sylvatica Fruit (None) 38.613546400000000 -90.258356400000000 69579
Tue Sep 20 00:00:00 GMT 2016 OtterPoint_Otter_Point_Creek_reporter9 Blackgum Nyssa sylvatica Full Fruiting 39.449290000000000 -76.277282000000000 69978
Mon Sep 26 00:00:00 GMT 2016 MBGYouthandFamily Blackgum Nyssa sylvatica Leaves Unfolding (Late) 38.613546400000000 -90.258356400000000 70241
Mon Sep 26 00:00:00 GMT 2016 MBGYouthandFamily Blackgum Nyssa sylvatica Leaves Changing Color (Late) 38.613546400000000 -90.258356400000000 70242
Mon Sep 26 00:00:00 GMT 2016 MBGYouthandFamily Blackgum Nyssa sylvatica Leaves Dropping (Middle) 38.613546400000000 -90.258356400000000 70243
Mon Sep 26 00:00:00 GMT 2016 MBGYouthandFamily Blackgum Nyssa sylvatica Flowers (None) 38.613546400000000 -90.258356400000000 70244
Mon Sep 26 00:00:00 GMT 2016 MBGYouthandFamily Blackgum Nyssa sylvatica Fruit (None) 38.613546400000000 -90.258356400000000 70245
Tue Oct 18 00:00:00 GMT 2016 OtterPoint_Otter_Point_Creek_reporter9 Blackgum Nyssa sylvatica 50% Color 39.449290000000000 -76.277282000000000 70968
Mon Oct 17 00:00:00 GMT 2016 MBGYouthandFamily Blackgum Nyssa sylvatica Leaves Unfolding (None) 38.613546400000000 -90.258356400000000 71019
Mon Oct 17 00:00:00 GMT 2016 MBGYouthandFamily Blackgum Nyssa sylvatica Leaves Changing Color (Late) 38.613546400000000 -90.258356400000000 71020
Mon Oct 17 00:00:00 GMT 2016 MBGYouthandFamily Blackgum Nyssa sylvatica Leaves Dropping (Late) 38.613546400000000 -90.258356400000000 71021
Mon Oct 17 00:00:00 GMT 2016 MBGYouthandFamily Blackgum Nyssa sylvatica Flowers (None) 38.613546400000000 -90.258356400000000 71022
Mon Oct 17 00:00:00 GMT 2016 MBGYouthandFamily Blackgum Nyssa sylvatica Fruit (None) 38.613546400000000 -90.258356400000000 71023
Mon Oct 24 00:00:00 GMT 2016 Riccardino Blackgum Nyssa sylvatica 50% Leaf Fall 41.943350000000000 -70.683050000000000 71557
Mon Nov 07 00:00:00 GMT 2016 OtterPoint Blackgum Nyssa sylvatica 50% Leaf Fall 39.449290000000000 -76.277282000000000 73724
Mon Nov 21 00:00:00 GMT 2016 MBGYouthandFamily Blackgum Nyssa sylvatica Leaves Unfolding (None) 38.613546400000000 -90.258356400000000 73891
Mon Nov 21 00:00:00 GMT 2016 MBGYouthandFamily Blackgum Nyssa sylvatica Leaves Changing Color (Late) 38.613546400000000 -90.258356400000000 73892
Mon Nov 21 00:00:00 GMT 2016 MBGYouthandFamily Blackgum Nyssa sylvatica Leaves Dropping (Late) 38.613546400000000 -90.258356400000000 73893
Mon Nov 21 00:00:00 GMT 2016 MBGYouthandFamily Blackgum Nyssa sylvatica Flowers (None) 38.613546400000000 -90.258356400000000 73894
Mon Nov 21 00:00:00 GMT 2016 MBGYouthandFamily Blackgum Nyssa sylvatica Fruit (Middle) 38.613546400000000 -90.258356400000000 73895
Mon Dec 12 00:00:00 GMT 2016 MBGYouthandFamily Blackgum Nyssa sylvatica Leaves Unfolding (None) 38.613546400000000 -90.258356400000000 74282
Mon Dec 12 00:00:00 GMT 2016 MBGYouthandFamily Blackgum Nyssa sylvatica Leaves Changing Color (Late) 38.613546400000000 -90.258356400000000 74283
Mon Dec 12 00:00:00 GMT 2016 MBGYouthandFamily Blackgum Nyssa sylvatica Leaves Dropping (Late) 38.613546400000000 -90.258356400000000 74284
Mon Dec 12 00:00:00 GMT 2016 MBGYouthandFamily Blackgum Nyssa sylvatica Flowers (None) 38.613546400000000 -90.258356400000000 74285
Mon Dec 12 00:00:00 GMT 2016 MBGYouthandFamily Blackgum Nyssa sylvatica Fruit (Late) 38.613546400000000 -90.258356400000000 74286
Tue Feb 07 00:00:00 GMT 2017 MBGYouthandFamily Blackgum Nyssa sylvatica Leaves Unfolding (None) 38.613546400000000 -90.258356400000000 74789
Tue Feb 07 00:00:00 GMT 2017 MBGYouthandFamily Blackgum Nyssa sylvatica Leaves Changing Color (None) 38.613546400000000 -90.258356400000000 74790
Tue Feb 07 00:00:00 GMT 2017 MBGYouthandFamily Blackgum Nyssa sylvatica Leaves Dropping (None) 38.613546400000000 -90.258356400000000 74791
Tue Feb 07 00:00:00 GMT 2017 MBGYouthandFamily Blackgum Nyssa sylvatica Flowers (None) 38.613546400000000 -90.258356400000000 74792
Tue Feb 07 00:00:00 GMT 2017 MBGYouthandFamily Blackgum Nyssa sylvatica Fruit (None) 38.613546400000000 -90.258356400000000 74793
Mon Mar 13 00:00:00 GMT 2017 MBGYouthandFamily Blackgum Nyssa sylvatica Leaves Unfolding (None) 38.613546400000000 -90.258356400000000 75600
Mon Mar 13 00:00:00 GMT 2017 MBGYouthandFamily Blackgum Nyssa sylvatica Leaves Changing Color (None) 38.613546400000000 -90.258356400000000 75601
Mon Mar 13 00:00:00 GMT 2017 MBGYouthandFamily Blackgum Nyssa sylvatica Leaves Dropping (None) 38.613546400000000 -90.258356400000000 75602
Mon Mar 13 00:00:00 GMT 2017 MBGYouthandFamily Blackgum Nyssa sylvatica Flowers (None) 38.613546400000000 -90.258356400000000 75603
Mon Mar 13 00:00:00 GMT 2017 MBGYouthandFamily Blackgum Nyssa sylvatica Fruit (None) 38.613546400000000 -90.258356400000000 75604
Fri Apr 07 00:00:00 GMT 2017 ch4bi Blackgum Nyssa sylvatica Leaves Unfolding (Middle) 37.574426000000000 -77.539785000000000 77434
Fri Apr 07 00:00:00 GMT 2017 ch4bi Blackgum Nyssa sylvatica Leaves Changing Color (None) 37.574426000000000 -77.539785000000000 77435
Fri Apr 07 00:00:00 GMT 2017 ch4bi Blackgum Nyssa sylvatica Leaves Dropping (None) 37.574426000000000 -77.539785000000000 77436
Fri Apr 07 00:00:00 GMT 2017 ch4bi Blackgum Nyssa sylvatica Flowers (None) 37.574426000000000 -77.539785000000000 77437
Fri Apr 07 00:00:00 GMT 2017 ch4bi Blackgum Nyssa sylvatica Fruit (None) 37.574426000000000 -77.539785000000000 77438
Wed Apr 12 00:00:00 GMT 2017 elen2 Blackgum Nyssa sylvatica Bud Burst 38.988535000000000 -94.813857000000000 77975
Wed Apr 12 00:00:00 GMT 2017 elen2 Blackgum Nyssa sylvatica First Leaf 38.988535000000000 -94.813857000000000 77976
Wed Apr 12 00:00:00 GMT 2017 elen2 Blackgum Nyssa sylvatica First Flower 38.988535000000000 -94.813857000000000 77977
Wed Apr 12 00:00:00 GMT 2017 elen2 Blackgum Nyssa sylvatica First Ripe Fruit 38.988535000000000 -94.813857000000000 77978
Mon Apr 17 00:00:00 GMT 2017 MBGYouthandFamily Blackgum Nyssa sylvatica Leaves Unfolding (Middle) 38.613546400000000 -90.258356400000000 79143
Mon Apr 17 00:00:00 GMT 2017 MBGYouthandFamily Blackgum Nyssa sylvatica Leaves Changing Color (None) 38.613546400000000 -90.258356400000000 79144
Mon Apr 17 00:00:00 GMT 2017 MBGYouthandFamily Blackgum Nyssa sylvatica Leaves Dropping (None) 38.613546400000000 -90.258356400000000 79145
Mon Apr 17 00:00:00 GMT 2017 MBGYouthandFamily Blackgum Nyssa sylvatica Flowers (None) 38.613546400000000 -90.258356400000000 79146
Mon Apr 17 00:00:00 GMT 2017 MBGYouthandFamily Blackgum Nyssa sylvatica Fruit (None) 38.613546400000000 -90.258356400000000 79147

*All downloadable materials require the free Adobe Reader.